sensor_id;sensor_type;location;lat;lon;timestamp;pressure;altitude;pressure_sealevel;temperature;humidity
21236;BME280;10775;42.678;26.324;2023-09-18T00:02:20;99178.34;;;22.86;67.95
21236;BME280;10775;42.678;26.324;2023-09-18T00:04:45;99186.03;;;22.62;68.63
21236;BME280;10775;42.678;26.324;2023-09-18T00:07:10;99170.44;;;22.56;69.09
21236;BME280;10775;42.678;26.324;2023-09-18T00:09:36;99176.84;;;22.68;68.74
21236;BME280;10775;42.678;26.324;2023-09-18T00:12:01;99171.19;;;22.72;68.27
21236;BME280;10775;42.678;26.324;2023-09-18T00:14:27;99170.94;;;22.63;68.49
21236;BME280;10775;42.678;26.324;2023-09-18T00:16:52;99160.06;;;22.51;69.01
21236;BME280;10775;42.678;26.324;2023-09-18T00:19:18;99166.75;;;22.58;68.82
21236;BME280;10775;42.678;26.324;2023-09-18T00:21:43;99163.13;;;22.74;68.14
21236;BME280;10775;42.678;26.324;2023-09-18T00:24:09;99160.84;;;22.68;68.30
21236;BME280;10775;42.678;26.324;2023-09-18T00:26:37;99162.19;;;22.61;68.66
21236;BME280;10775;42.678;26.324;2023-09-18T00:29:02;99154.25;;;22.59;68.78
21236;BME280;10775;42.678;26.324;2023-09-18T00:31:27;99157.91;;;22.58;68.57
21236;BME280;10775;42.678;26.324;2023-09-18T00:33:53;99147.44;;;22.55;68.81
21236;BME280;10775;42.678;26.324;2023-09-18T00:36:18;99156.19;;;22.71;68.22
21236;BME280;10775;42.678;26.324;2023-09-18T00:38:44;99156.81;;;22.75;67.83
21236;BME280;10775;42.678;26.324;2023-09-18T00:41:09;99155.22;;;22.87;67.58
21236;BME280;10775;42.678;26.324;2023-09-18T00:43:35;99159.03;;;22.97;66.99
21236;BME280;10775;42.678;26.324;2023-09-18T00:46:00;99148.66;;;22.78;67.24
21236;BME280;10775;42.678;26.324;2023-09-18T00:48:26;99149.03;;;22.43;68.56
21236;BME280;10775;42.678;26.324;2023-09-18T00:50:53;99147.78;;;22.49;68.65
21236;BME280;10775;42.678;26.324;2023-09-18T00:53:22;99149.16;;;22.70;68.07
21236;BME280;10775;42.678;26.324;2023-09-18T00:55:50;99154.66;;;22.53;68.46
21236;BME280;10775;42.678;26.324;2023-09-18T00:58:18;99154.66;;;22.53;68.32
21236;BME280;10775;42.678;26.324;2023-09-18T01:00:44;99147.34;;;22.42;68.62
21236;BME280;10775;42.678;26.324;2023-09-18T01:03:10;99150.00;;;22.42;68.91
21236;BME280;10775;42.678;26.324;2023-09-18T01:05:36;99151.53;;;22.61;68.07
21236;BME280;10775;42.678;26.324;2023-09-18T01:08:02;99140.66;;;22.64;67.98
21236;BME280;10775;42.678;26.324;2023-09-18T01:10:37;99154.75;;;22.51;68.08
21236;BME280;10775;42.678;26.324;2023-09-18T01:13:11;99145.97;;;22.49;68.51
21236;BME280;10775;42.678;26.324;2023-09-18T01:15:52;99150.09;;;22.10;68.00
21236;BME280;10775;42.678;26.324;2023-09-18T01:18:19;99161.00;;;21.45;72.00
21236;BME280;10775;42.678;26.324;2023-09-18T01:20:44;99152.44;;;20.75;74.79
21236;BME280;10775;42.678;26.324;2023-09-18T01:23:10;99149.06;;;21.83;71.73
21236;BME280;10775;42.678;26.324;2023-09-18T01:25:37;99144.63;;;21.83;71.08
21236;BME280;10775;42.678;26.324;2023-09-18T01:28:03;99135.41;;;22.19;69.88
21236;BME280;10775;42.678;26.324;2023-09-18T01:30:29;99138.38;;;22.43;68.80
21236;BME280;10775;42.678;26.324;2023-09-18T01:32:57;99137.34;;;22.46;68.39
21236;BME280;10775;42.678;26.324;2023-09-18T01:35:25;99135.22;;;22.36;68.91
21236;BME280;10775;42.678;26.324;2023-09-18T01:37:56;99134.94;;;22.41;68.51
21236;BME280;10775;42.678;26.324;2023-09-18T01:40:23;99134.94;;;22.41;68.43
21236;BME280;10775;42.678;26.324;2023-09-18T01:42:49;99139.53;;;22.53;68.24
21236;BME280;10775;42.678;26.324;2023-09-18T01:45:15;99133.53;;;22.50;67.91
21236;BME280;10775;42.678;26.324;2023-09-18T01:47:40;99138.75;;;22.37;68.43
21236;BME280;10775;42.678;26.324;2023-09-18T01:50:06;99141.59;;;22.34;68.66
21236;BME280;10775;42.678;26.324;2023-09-18T01:52:32;99129.97;;;22.21;69.00
21236;BME280;10775;42.678;26.324;2023-09-18T01:54:57;99136.47;;;22.31;68.53
21236;BME280;10775;42.678;26.324;2023-09-18T01:57:23;99140.13;;;22.14;69.33
21236;BME280;10775;42.678;26.324;2023-09-18T01:59:48;99140.16;;;22.28;68.72
21236;BME280;10775;42.678;26.324;2023-09-18T02:02:14;99149.47;;;22.21;68.90
21236;BME280;10775;42.678;26.324;2023-09-18T02:04:39;99156.34;;;22.25;68.43
21236;BME280;10775;42.678;26.324;2023-09-18T02:07:05;99146.75;;;22.07;69.46
21236;BME280;10775;42.678;26.324;2023-09-18T02:09:31;99153.34;;;22.15;69.17
21236;BME280;10775;42.678;26.324;2023-09-18T02:11:56;99141.59;;;22.20;68.87
21236;BME280;10775;42.678;26.324;2023-09-18T02:14:22;99139.59;;;22.23;68.67
21236;BME280;10775;42.678;26.324;2023-09-18T02:16:47;99145.22;;;22.33;68.39
21236;BME280;10775;42.678;26.324;2023-09-18T02:19:14;99139.56;;;22.09;69.23
21236;BME280;10775;42.678;26.324;2023-09-18T02:21:39;99138.59;;;21.80;70.00
21236;BME280;10775;42.678;26.324;2023-09-18T02:24:05;99144.91;;;21.31;71.47
21236;BME280;10775;42.678;26.324;2023-09-18T02:26:31;99134.09;;;21.66;70.82
21236;BME280;10775;42.678;26.324;2023-09-18T02:29:03;99147.00;;;21.42;71.62
21236;BME280;10775;42.678;26.324;2023-09-18T02:31:29;99144.59;;;21.05;73.38
21236;BME280;10775;42.678;26.324;2023-09-18T02:33:56;99134.50;;;21.74;70.85
21236;BME280;10775;42.678;26.324;2023-09-18T02:36:21;99138.41;;;21.83;70.07
21236;BME280;10775;42.678;26.324;2023-09-18T02:38:46;99137.69;;;21.95;69.68
21236;BME280;10775;42.678;26.324;2023-09-18T02:41:12;99130.28;;;22.00;69.30
21236;BME280;10775;42.678;26.324;2023-09-18T02:43:37;99140.28;;;22.11;68.96
21236;BME280;10775;42.678;26.324;2023-09-18T02:46:04;99139.50;;;21.95;68.97
21236;BME280;10775;42.678;26.324;2023-09-18T02:48:30;99133.28;;;21.80;69.52
21236;BME280;10775;42.678;26.324;2023-09-18T02:50:56;99151.69;;;21.21;72.37
21236;BME280;10775;42.678;26.324;2023-09-18T02:53:23;99146.78;;;21.77;70.45
21236;BME280;10775;42.678;26.324;2023-09-18T02:55:51;99151.28;;;21.60;70.65
21236;BME280;10775;42.678;26.324;2023-09-18T02:58:17;99154.59;;;21.64;70.49
21236;BME280;10775;42.678;26.324;2023-09-18T03:00:45;99154.69;;;21.62;70.48
21236;BME280;10775;42.678;26.324;2023-09-18T03:03:11;99154.09;;;21.57;70.82
21236;BME280;10775;42.678;26.324;2023-09-18T03:05:37;99145.28;;;21.87;69.48
21236;BME280;10775;42.678;26.324;2023-09-18T03:08:03;99153.19;;;21.88;69.35
21236;BME280;10775;42.678;26.324;2023-09-18T03:10:49;99160.00;;;21.78;69.72
21236;BME280;10775;42.678;26.324;2023-09-18T03:13:15;99164.88;;;20.75;73.74
21236;BME280;10775;42.678;26.324;2023-09-18T03:15:44;99169.38;;;21.22;71.83
21236;BME280;10775;42.678;26.324;2023-09-18T03:18:11;99156.28;;;21.51;70.82
21236;BME280;10775;42.678;26.324;2023-09-18T03:20:36;99159.78;;;21.51;70.76
21236;BME280;10775;42.678;26.324;2023-09-18T03:23:02;99163.00;;;21.72;69.90
21236;BME280;10775;42.678;26.324;2023-09-18T03:25:28;99161.09;;;21.74;69.34
21236;BME280;10775;42.678;26.324;2023-09-18T03:27:55;99174.00;;;21.66;70.07
21236;BME280;10775;42.678;26.324;2023-09-18T03:30:22;99167.56;;;21.54;70.21
21236;BME280;10775;42.678;26.324;2023-09-18T03:32:51;99161.47;;;21.52;70.40
21236;BME280;10775;42.678;26.324;2023-09-18T03:35:17;99162.22;;;21.40;70.15
21236;BME280;10775;42.678;26.324;2023-09-18T03:37:47;99162.50;;;21.34;70.89
21236;BME280;10775;42.678;26.324;2023-09-18T03:40:13;99166.97;;;21.49;70.56
21236;BME280;10775;42.678;26.324;2023-09-18T03:42:39;99170.19;;;21.40;70.25
21236;BME280;10775;42.678;26.324;2023-09-18T03:45:05;99167.63;;;21.37;70.90
21236;BME280;10775;42.678;26.324;2023-09-18T03:47:31;99165.94;;;21.52;70.40
21236;BME280;10775;42.678;26.324;2023-09-18T03:49:57;99172.41;;;21.47;70.34
21236;BME280;10775;42.678;26.324;2023-09-18T03:52:22;99178.75;;;21.45;70.27
21236;BME280;10775;42.678;26.324;2023-09-18T03:54:49;99174.69;;;21.69;69.51
21236;BME280;10775;42.678;26.324;2023-09-18T03:57:14;99169.34;;;21.69;69.30
21236;BME280;10775;42.678;26.324;2023-09-18T03:59:40;99172.13;;;21.68;69.34
21236;BME280;10775;42.678;26.324;2023-09-18T04:02:05;99173.81;;;21.69;69.21
21236;BME280;10775;42.678;26.324;2023-09-18T04:04:31;99170.56;;;21.64;69.42
21236;BME280;10775;42.678;26.324;2023-09-18T04:06:57;99181.09;;;21.81;68.63
21236;BME280;10775;42.678;26.324;2023-09-18T04:09:23;99185.06;;;21.74;68.65
21236;BME280;10775;42.678;26.324;2023-09-18T04:11:48;99182.84;;;21.35;69.80
21236;BME280;10775;42.678;26.324;2023-09-18T04:14:14;99188.72;;;20.92;71.54
21236;BME280;10775;42.678;26.324;2023-09-18T04:16:39;99184.88;;;20.65;73.05
21236;BME280;10775;42.678;26.324;2023-09-18T04:19:07;99187.09;;;20.56;73.97
21236;BME280;10775;42.678;26.324;2023-09-18T04:21:32;99189.03;;;21.19;70.99
21236;BME280;10775;42.678;26.324;2023-09-18T04:23:58;99191.31;;;21.25;70.70
21236;BME280;10775;42.678;26.324;2023-09-18T04:26:24;99194.22;;;20.89;71.20
21236;BME280;10775;42.678;26.324;2023-09-18T04:28:54;99193.91;;;20.10;74.45
21236;BME280;10775;42.678;26.324;2023-09-18T04:31:20;99197.78;;;20.37;74.66
21236;BME280;10775;42.678;26.324;2023-09-18T04:33:45;99192.84;;;21.14;71.26
21236;BME280;10775;42.678;26.324;2023-09-18T04:36:11;99189.03;;;21.19;71.05
21236;BME280;10775;42.678;26.324;2023-09-18T04:38:36;99194.59;;;21.46;69.63
21236;BME280;10775;42.678;26.324;2023-09-18T04:41:02;99204.31;;;21.47;69.37
21236;BME280;10775;42.678;26.324;2023-09-18T04:43:27;99202.81;;;21.26;69.97
21236;BME280;10775;42.678;26.324;2023-09-18T04:45:55;99203.19;;;20.53;73.22
21236;BME280;10775;42.678;26.324;2023-09-18T04:48:20;99210.34;;;21.02;71.61
21236;BME280;10775;42.678;26.324;2023-09-18T04:50:46;99202.97;;;21.07;69.31
21236;BME280;10775;42.678;26.324;2023-09-18T04:53:13;99200.34;;;20.74;72.45
21236;BME280;10775;42.678;26.324;2023-09-18T04:55:38;99197.09;;;20.69;72.53
21236;BME280;10775;42.678;26.324;2023-09-18T04:58:04;99207.63;;;21.19;70.62
21236;BME280;10775;42.678;26.324;2023-09-18T05:00:30;99205.41;;;21.12;70.80
21236;BME280;10775;42.678;26.324;2023-09-18T05:02:57;99204.25;;;21.16;70.53
21236;BME280;10775;42.678;26.324;2023-09-18T05:05:26;99198.53;;;21.23;70.51
21236;BME280;10775;42.678;26.324;2023-09-18T05:07:51;99205.19;;;21.48;69.29
21236;BME280;10775;42.678;26.324;2023-09-18T05:10:16;99205.06;;;21.49;68.99
21236;BME280;10775;42.678;26.324;2023-09-18T05:12:42;99206.53;;;21.55;68.82
21236;BME280;10775;42.678;26.324;2023-09-18T05:15:08;99205.66;;;21.23;69.86
21236;BME280;10775;42.678;26.324;2023-09-18T05:20:08;99211.91;;;21.22;70.13
21236;BME280;10775;42.678;26.324;2023-09-18T05:22:36;99206.59;;;21.38;69.45
21236;BME280;10775;42.678;26.324;2023-09-18T05:25:02;99202.50;;;21.48;68.83
21236;BME280;10775;42.678;26.324;2023-09-18T05:27:29;99200.44;;;21.37;69.88
21236;BME280;10775;42.678;26.324;2023-09-18T05:29:54;99194.34;;;21.51;68.62
21236;BME280;10775;42.678;26.324;2023-09-18T05:32:20;99187.91;;;21.39;69.26
21236;BME280;10775;42.678;26.324;2023-09-18T05:34:45;99199.22;;;21.75;68.35
21236;BME280;10775;42.678;26.324;2023-09-18T05:37:11;99201.94;;;21.89;67.96
21236;BME280;10775;42.678;26.324;2023-09-18T05:39:36;99197.22;;;21.94;67.70
21236;BME280;10775;42.678;26.324;2023-09-18T05:42:02;99180.34;;;22.09;67.17
21236;BME280;10775;42.678;26.324;2023-09-18T05:44:27;99181.34;;;22.23;67.14
21236;BME280;10775;42.678;26.324;2023-09-18T05:46:53;99181.97;;;22.12;67.66
21236;BME280;10775;42.678;26.324;2023-09-18T05:49:18;99180.34;;;22.09;68.02
21236;BME280;10775;42.678;26.324;2023-09-18T05:51:43;99182.59;;;22.01;68.59
21236;BME280;10775;42.678;26.324;2023-09-18T05:54:09;99175.16;;;22.22;67.82
21236;BME280;10775;42.678;26.324;2023-09-18T05:56:34;99180.09;;;22.28;68.14
21236;BME280;10775;42.678;26.324;2023-09-18T05:59:00;99170.03;;;22.33;67.94
21236;BME280;10775;42.678;26.324;2023-09-18T06:01:25;99182.00;;;22.26;67.54
21236;BME280;10775;42.678;26.324;2023-09-18T06:03:51;99177.91;;;22.21;67.33
21236;BME280;10775;42.678;26.324;2023-09-18T06:06:16;99181.28;;;22.39;66.78
21236;BME280;10775;42.678;26.324;2023-09-18T06:08:42;99181.19;;;22.54;66.56
21236;BME280;10775;42.678;26.324;2023-09-18T06:11:07;99182.53;;;22.62;66.35
21236;BME280;10775;42.678;26.324;2023-09-18T06:13:32;99177.94;;;22.35;67.23
21236;BME280;10775;42.678;26.324;2023-09-18T06:15:59;99185.19;;;22.47;66.82
21236;BME280;10775;42.678;26.324;2023-09-18T06:18:30;99185.03;;;22.20;67.95
21236;BME280;10775;42.678;26.324;2023-09-18T06:20:56;99183.75;;;22.56;67.01
21236;BME280;10775;42.678;26.324;2023-09-18T06:23:21;99189.56;;;22.48;66.83
21236;BME280;10775;42.678;26.324;2023-09-18T06:25:47;99183.59;;;22.14;67.29
21236;BME280;10775;42.678;26.324;2023-09-18T06:28:12;99186.72;;;22.37;68.35
21236;BME280;10775;42.678;26.324;2023-09-18T06:30:38;99182.06;;;22.69;68.00
21236;BME280;10775;42.678;26.324;2023-09-18T06:33:03;99178.91;;;22.48;63.80
21236;BME280;10775;42.678;26.324;2023-09-18T06:35:29;99175.84;;;22.54;68.59
21236;BME280;10775;42.678;26.324;2023-09-18T06:37:55;99176.63;;;22.85;67.31
21236;BME280;10775;42.678;26.324;2023-09-18T06:40:24;99186.91;;;22.91;67.11
21236;BME280;10775;42.678;26.324;2023-09-18T06:42:50;99191.69;;;21.51;58.54
21236;BME280;10775;42.678;26.324;2023-09-18T06:45:17;99190.94;;;21.95;70.36
21236;BME280;10775;42.678;26.324;2023-09-18T06:47:42;99186.44;;;22.70;68.64
21236;BME280;10775;42.678;26.324;2023-09-18T06:50:08;99196.06;;;24.12;64.87
21236;BME280;10775;42.678;26.324;2023-09-18T06:52:34;99198.16;;;25.47;59.04
21236;BME280;10775;42.678;26.324;2023-09-18T06:55:00;99192.44;;;26.35;56.30
21236;BME280;10775;42.678;26.324;2023-09-18T06:57:25;99190.06;;;26.43;54.42
21236;BME280;10775;42.678;26.324;2023-09-18T06:59:51;99186.34;;;27.02;53.91
21236;BME280;10775;42.678;26.324;2023-09-18T07:02:16;99187.06;;;27.04;52.78
21236;BME280;10775;42.678;26.324;2023-09-18T07:04:42;99196.88;;;26.48;54.80
21236;BME280;10775;42.678;26.324;2023-09-18T07:07:14;99180.97;;;27.14;53.23
21236;BME280;10775;42.678;26.324;2023-09-18T07:09:42;99188.81;;;27.71;52.08
21236;BME280;10775;42.678;26.324;2023-09-18T07:12:08;99182.13;;;27.98;51.18
21236;BME280;10775;42.678;26.324;2023-09-18T07:14:35;99190.63;;;28.35;49.29
21236;BME280;10775;42.678;26.324;2023-09-18T07:17:01;99188.31;;;28.31;49.73
21236;BME280;10775;42.678;26.324;2023-09-18T07:19:27;99193.91;;;27.86;47.75
21236;BME280;10775;42.678;26.324;2023-09-18T07:21:52;99186.69;;;26.86;46.60
21236;BME280;10775;42.678;26.324;2023-09-18T07:24:18;99207.09;;;27.23;51.66
21236;BME280;10775;42.678;26.324;2023-09-18T07:26:46;99196.78;;;26.14;51.48
21236;BME280;10775;42.678;26.324;2023-09-18T07:29:16;99197.56;;;27.07;45.11
21236;BME280;10775;42.678;26.324;2023-09-18T07:31:42;99199.63;;;26.81;46.71
21236;BME280;10775;42.678;26.324;2023-09-18T07:34:09;99197.41;;;24.95;47.33
21236;BME280;10775;42.678;26.324;2023-09-18T07:36:35;99200.47;;;26.24;53.20
21236;BME280;10775;42.678;26.324;2023-09-18T07:39:00;99200.50;;;26.35;51.71
21236;BME280;10775;42.678;26.324;2023-09-18T07:41:26;99202.06;;;25.91;51.41
21236;BME280;10775;42.678;26.324;2023-09-18T07:43:51;99199.66;;;24.76;48.49
21236;BME280;10775;42.678;26.324;2023-09-18T07:46:17;99201.09;;;24.29;47.53
21236;BME280;10775;42.678;26.324;2023-09-18T07:48:42;99200.19;;;24.81;56.42
21236;BME280;10775;42.678;26.324;2023-09-18T07:51:11;99195.88;;;25.78;54.00
21236;BME280;10775;42.678;26.324;2023-09-18T07:53:37;99193.34;;;24.51;56.64
21236;BME280;10775;42.678;26.324;2023-09-18T07:56:03;99190.63;;;25.52;51.63
21236;BME280;10775;42.678;26.324;2023-09-18T07:58:30;99191.34;;;25.67;51.79
21236;BME280;10775;42.678;26.324;2023-09-18T08:00:56;99188.97;;;26.46;47.97
21236;BME280;10775;42.678;26.324;2023-09-18T08:03:23;99186.34;;;25.74;48.58
21236;BME280;10775;42.678;26.324;2023-09-18T08:05:51;99194.22;;;24.12;47.89
21236;BME280;10775;42.678;26.324;2023-09-18T08:08:18;99192.50;;;23.98;58.37
21236;BME280;10775;42.678;26.324;2023-09-18T08:10:46;99188.81;;;24.26;51.99
21236;BME280;10775;42.678;26.324;2023-09-18T08:13:11;99183.00;;;24.07;53.59
21236;BME280;10775;42.678;26.324;2023-09-18T08:15:36;99174.00;;;23.95;50.71
21236;BME280;10775;42.678;26.324;2023-09-18T08:18:03;99187.34;;;24.73;56.18
21236;BME280;10775;42.678;26.324;2023-09-18T08:20:28;99186.47;;;25.48;51.83
21236;BME280;10775;42.678;26.324;2023-09-18T08:22:54;99182.25;;;25.81;50.90
21236;BME280;10775;42.678;26.324;2023-09-18T08:25:19;99175.16;;;25.93;51.70
21236;BME280;10775;42.678;26.324;2023-09-18T08:27:45;99169.81;;;26.51;51.94
21236;BME280;10775;42.678;26.324;2023-09-18T08:30:12;99172.28;;;24.85;51.29
21236;BME280;10775;42.678;26.324;2023-09-18T08:32:38;99156.91;;;26.44;52.70
21236;BME280;10775;42.678;26.324;2023-09-18T08:35:05;99170.91;;;26.26;49.22
21236;BME280;10775;42.678;26.324;2023-09-18T08:37:31;99152.78;;;26.52;51.79
21236;BME280;10775;42.678;26.324;2023-09-18T08:39:56;99166.09;;;25.83;50.69
21236;BME280;10775;42.678;26.324;2023-09-18T08:42:22;99152.44;;;26.10;48.56
21236;BME280;10775;42.678;26.324;2023-09-18T08:44:50;99154.06;;;25.64;50.26
21236;BME280;10775;42.678;26.324;2023-09-18T08:47:17;99154.09;;;24.78;49.04
21236;BME280;10775;42.678;26.324;2023-09-18T08:49:45;99149.84;;;25.12;53.32
21236;BME280;10775;42.678;26.324;2023-09-18T08:52:14;99152.63;;;25.23;44.86
21236;BME280;10775;42.678;26.324;2023-09-18T08:54:40;99139.47;;;25.92;52.02
21236;BME280;10775;42.678;26.324;2023-09-18T08:57:05;99141.75;;;25.62;45.08
21236;BME280;10775;42.678;26.324;2023-09-18T08:59:34;99151.38;;;25.64;44.84
21236;BME280;10775;42.678;26.324;2023-09-18T09:02:01;99147.50;;;26.28;44.49
21236;BME280;10775;42.678;26.324;2023-09-18T09:04:27;99142.72;;;26.66;43.52
21236;BME280;10775;42.678;26.324;2023-09-18T09:06:52;99151.03;;;26.28;49.48
21236;BME280;10775;42.678;26.324;2023-09-18T09:09:18;99147.34;;;25.83;46.18
21236;BME280;10775;42.678;26.324;2023-09-18T09:11:51;99140.53;;;26.14;51.50
21236;BME280;10775;42.678;26.324;2023-09-18T09:14:16;99132.81;;;26.78;42.72
21236;BME280;10775;42.678;26.324;2023-09-18T09:16:51;99128.88;;;26.37;40.21
21236;BME280;10775;42.678;26.324;2023-09-18T09:19:17;99128.13;;;26.24;50.76
21236;BME280;10775;42.678;26.324;2023-09-18T09:21:44;99127.47;;;25.98;40.54
21236;BME280;10775;42.678;26.324;2023-09-18T09:24:10;99120.94;;;26.24;46.28
21236;BME280;10775;42.678;26.324;2023-09-18T09:26:40;99120.06;;;26.13;40.84
21236;BME280;10775;42.678;26.324;2023-09-18T09:29:19;99118.94;;;26.73;49.14
21236;BME280;10775;42.678;26.324;2023-09-18T09:31:46;99126.94;;;26.39;49.64
21236;BME280;10775;42.678;26.324;2023-09-18T09:34:12;99122.53;;;26.27;51.12
21236;BME280;10775;42.678;26.324;2023-09-18T09:36:55;99120.13;;;25.89;41.31
21236;BME280;10775;42.678;26.324;2023-09-18T09:39:22;99118.19;;;25.91;41.85
21236;BME280;10775;42.678;26.324;2023-09-18T09:41:51;99114.53;;;25.68;40.81
21236;BME280;10775;42.678;26.324;2023-09-18T09:44:17;99105.16;;;25.97;44.11
21236;BME280;10775;42.678;26.324;2023-09-18T09:46:49;99109.81;;;25.95;49.02
21236;BME280;10775;42.678;26.324;2023-09-18T09:49:17;99111.06;;;25.78;43.15
21236;BME280;10775;42.678;26.324;2023-09-18T09:51:45;99104.44;;;25.95;50.63
21236;BME280;10775;42.678;26.324;2023-09-18T09:54:11;99102.38;;;25.99;39.73
21236;BME280;10775;42.678;26.324;2023-09-18T09:56:42;99092.84;;;26.41;42.19
21236;BME280;10775;42.678;26.324;2023-09-18T09:59:08;99091.97;;;26.41;40.05
21236;BME280;10775;42.678;26.324;2023-09-18T10:01:35;99090.53;;;26.82;48.79
21236;BME280;10775;42.678;26.324;2023-09-18T10:04:05;99079.81;;;26.71;39.85
21236;BME280;10775;42.678;26.324;2023-09-18T10:06:35;99090.63;;;26.46;47.74
21236;BME280;10775;42.678;26.324;2023-09-18T10:09:06;99089.81;;;26.57;41.13
21236;BME280;10775;42.678;26.324;2023-09-18T10:11:34;99082.84;;;27.00;41.02
21236;BME280;10775;42.678;26.324;2023-09-18T10:14:22;99085.78;;;26.63;40.66
21236;BME280;10775;42.678;26.324;2023-09-18T10:16:51;99087.50;;;26.64;45.27
21236;BME280;10775;42.678;26.324;2023-09-18T10:19:29;99081.63;;;26.48;49.21
21236;BME280;10775;42.678;26.324;2023-09-18T10:22:26;99086.00;;;26.26;47.94
21236;BME280;10775;42.678;26.324;2023-09-18T10:25:02;99083.81;;;26.31;48.79
21236;BME280;10775;42.678;26.324;2023-09-18T10:27:31;99086.88;;;26.49;47.52
21236;BME280;10775;42.678;26.324;2023-09-18T10:29:59;99098.78;;;26.34;51.73
21236;BME280;10775;42.678;26.324;2023-09-18T10:32:30;99083.03;;;26.18;47.39
21236;BME280;10775;42.678;26.324;2023-09-18T10:34:56;99080.28;;;26.42;46.36
21236;BME280;10775;42.678;26.324;2023-09-18T10:37:22;99085.66;;;26.64;44.36
21236;BME280;10775;42.678;26.324;2023-09-18T10:39:49;99080.66;;;26.60;47.90
21236;BME280;10775;42.678;26.324;2023-09-18T10:42:16;99070.88;;;26.81;50.79
21236;BME280;10775;42.678;26.324;2023-09-18T10:44:42;99079.22;;;26.67;48.73
21236;BME280;10775;42.678;26.324;2023-09-18T10:47:10;99069.94;;;26.82;48.37
21236;BME280;10775;42.678;26.324;2023-09-18T10:49:37;99079.03;;;26.91;51.48
21236;BME280;10775;42.678;26.324;2023-09-18T10:52:03;99072.81;;;27.02;49.70
21236;BME280;10775;42.678;26.324;2023-09-18T10:54:30;99069.53;;;26.08;54.39
21236;BME280;10775;42.678;26.324;2023-09-18T10:56:56;99072.44;;;26.05;52.72
21236;BME280;10775;42.678;26.324;2023-09-18T10:59:22;99068.66;;;26.08;48.59
21236;BME280;10775;42.678;26.324;2023-09-18T11:01:48;99070.13;;;26.12;47.04
21236;BME280;10775;42.678;26.324;2023-09-18T11:04:18;99068.69;;;26.98;47.30
21236;BME280;10775;42.678;26.324;2023-09-18T11:09:29;99063.63;;;27.16;49.76
21236;BME280;10775;42.678;26.324;2023-09-18T11:17:30;99064.91;;;26.33;51.62
21236;BME280;10775;42.678;26.324;2023-09-18T11:20:21;99061.16;;;26.80;49.42
21236;BME280;10775;42.678;26.324;2023-09-18T11:28:03;99061.16;;;26.24;48.98
21236;BME280;10775;42.678;26.324;2023-09-18T11:30:33;99052.63;;;26.41;51.95
21236;BME280;10775;42.678;26.324;2023-09-18T11:33:02;99056.28;;;26.63;47.77
21236;BME280;10775;42.678;26.324;2023-09-18T11:35:28;99069.56;;;26.53;48.34
21236;BME280;10775;42.678;26.324;2023-09-18T11:38:07;99060.84;;;25.93;53.09
21236;BME280;10775;42.678;26.324;2023-09-18T11:40:35;99061.00;;;25.68;50.03
21236;BME280;10775;42.678;26.324;2023-09-18T11:43:27;99058.81;;;26.19;52.84
21236;BME280;10775;42.678;26.324;2023-09-18T11:45:57;99050.66;;;26.10;51.59
21236;BME280;10775;42.678;26.324;2023-09-18T11:48:24;99054.69;;;26.27;50.47
21236;BME280;10775;42.678;26.324;2023-09-18T11:50:53;99044.06;;;25.91;48.43
21236;BME280;10775;42.678;26.324;2023-09-18T11:53:20;99049.41;;;26.02;51.53
21236;BME280;10775;42.678;26.324;2023-09-18T11:55:46;99039.47;;;26.38;47.27
21236;BME280;10775;42.678;26.324;2023-09-18T11:58:13;99040.09;;;26.64;50.23
21236;BME280;10775;42.678;26.324;2023-09-18T12:00:38;99030.69;;;26.14;50.64
21236;BME280;10775;42.678;26.324;2023-09-18T12:03:19;99041.41;;;26.36;52.54
21236;BME280;10775;42.678;26.324;2023-09-18T12:06:01;99029.84;;;26.36;52.23
21236;BME280;10775;42.678;26.324;2023-09-18T12:08:30;99023.38;;;26.05;43.80
21236;BME280;10775;42.678;26.324;2023-09-18T12:10:56;99033.47;;;26.01;46.44
21236;BME280;10775;42.678;26.324;2023-09-18T12:13:25;99035.16;;;25.91;44.99
21236;BME280;10775;42.678;26.324;2023-09-18T12:15:56;99035.47;;;25.75;50.88
21236;BME280;10775;42.678;26.324;2023-09-18T12:18:22;99031.38;;;25.47;45.21
21236;BME280;10775;42.678;26.324;2023-09-18T12:20:50;99030.16;;;25.97;52.68
21236;BME280;10775;42.678;26.324;2023-09-18T12:23:17;99016.34;;;26.60;49.98
21236;BME280;10775;42.678;26.324;2023-09-18T12:25:48;99018.25;;;26.35;42.67
21236;BME280;10775;42.678;26.324;2023-09-18T12:28:15;99019.63;;;26.52;47.08
21236;BME280;10775;42.678;26.324;2023-09-18T12:30:42;99023.16;;;26.41;44.78
21236;BME280;10775;42.678;26.324;2023-09-18T12:33:08;99016.59;;;26.57;45.56
21236;BME280;10775;42.678;26.324;2023-09-18T12:35:34;99007.81;;;26.43;49.67
21236;BME280;10775;42.678;26.324;2023-09-18T12:38:00;99013.16;;;26.21;44.61
21236;BME280;10775;42.678;26.324;2023-09-18T12:40:28;99016.06;;;26.40;50.80
21236;BME280;10775;42.678;26.324;2023-09-18T12:42:55;99017.28;;;26.02;45.68
21236;BME280;10775;42.678;26.324;2023-09-18T12:45:22;99017.28;;;26.14;44.48
21236;BME280;10775;42.678;26.324;2023-09-18T12:47:49;99010.00;;;26.16;50.73
21236;BME280;10775;42.678;26.324;2023-09-18T12:50:14;99005.16;;;25.74;44.87
21236;BME280;10775;42.678;26.324;2023-09-18T12:52:40;98992.56;;;25.99;44.55
21236;BME280;10775;42.678;26.324;2023-09-18T12:55:06;98991.47;;;26.35;42.69
21236;BME280;10775;42.678;26.324;2023-09-18T12:57:33;98988.66;;;26.71;42.94
21236;BME280;10775;42.678;26.324;2023-09-18T12:59:58;98996.97;;;26.34;42.81
21236;BME280;10775;42.678;26.324;2023-09-18T13:02:24;98994.38;;;26.66;44.43
21236;BME280;10775;42.678;26.324;2023-09-18T13:04:56;98991.72;;;26.32;44.00
21236;BME280;10775;42.678;26.324;2023-09-18T13:07:23;98989.78;;;26.34;44.68